createdAt,value
2019-04-03T00:00:11.023Z,28.90
2019-04-03T00:02:38.387Z,29.00
2019-04-03T00:05:05.908Z,28.90
2019-04-03T00:07:33.765Z,28.80
2019-04-03T00:10:02.777Z,29.10
2019-04-03T00:12:30.638Z,29.10
2019-04-03T00:15:17.698Z,29.20
2019-04-03T00:17:45.966Z,29.30
2019-04-03T00:20:13.668Z,29.30
2019-04-03T00:22:41.227Z,29.30
2019-04-03T00:25:08.987Z,29.40
2019-04-03T00:27:36.412Z,29.40
2019-04-03T00:30:04.795Z,29.50
2019-04-03T00:32:32.227Z,29.60
2019-04-03T00:34:59.726Z,29.60
2019-04-03T00:37:27.227Z,29.60
2019-04-03T00:39:54.744Z,29.80
2019-04-03T00:42:24.065Z,29.60
2019-04-03T00:44:54.026Z,29.80
2019-04-03T00:47:20.955Z,29.80
2019-04-03T00:49:48.344Z,29.70
2019-04-03T00:52:15.678Z,29.80
2019-04-03T00:54:43.074Z,29.80
2019-04-03T00:57:10.557Z,29.80
2019-04-03T00:59:37.950Z,29.90
2019-04-03T01:02:05.428Z,30.00
2019-04-03T01:04:33.038Z,29.90
2019-04-03T01:07:00.437Z,29.90
2019-04-03T01:09:29.793Z,29.90
2019-04-03T01:11:57.081Z,30.00
2019-04-03T01:14:24.436Z,30.00
2019-04-03T01:16:51.898Z,30.70
2019-04-03T01:19:19.208Z,30.10
2019-04-03T01:21:46.627Z,30.20
2019-04-03T01:24:14.001Z,30.20
2019-04-03T01:26:41.398Z,30.10
2019-04-03T01:29:08.811Z,30.10
2019-04-03T01:31:36.165Z,30.10
2019-04-03T01:34:03.809Z,30.20
2019-04-03T01:36:31.105Z,30.20
2019-04-03T01:38:58.644Z,30.20
2019-04-03T01:41:26.090Z,30.20
2019-04-03T01:43:54.259Z,30.40
2019-04-03T01:46:21.669Z,30.40
2019-04-03T01:48:49.221Z,30.40
2019-04-03T01:51:16.621Z,30.40
2019-04-03T01:53:44.144Z,30.60
2019-04-03T01:56:11.594Z,30.70
2019-04-03T01:58:39.083Z,30.80
2019-04-03T02:01:08.039Z,30.70
2019-04-03T02:03:35.725Z,30.60
2019-04-03T02:06:03.105Z,30.70
2019-04-03T02:08:30.558Z,30.60
2019-04-03T02:10:57.964Z,30.70
2019-04-03T02:13:25.288Z,30.80
2019-04-03T02:15:52.954Z,30.80
2019-04-03T02:18:20.798Z,30.80
2019-04-03T02:20:48.217Z,30.80
2019-04-03T02:23:15.529Z,30.90
2019-04-03T02:25:42.821Z,30.90
2019-04-03T02:28:10.133Z,31.00
2019-04-03T02:30:37.544Z,31.20
2019-04-03T02:33:04.826Z,31.20
2019-04-03T02:35:32.439Z,31.20
2019-04-03T02:37:59.866Z,31.30
2019-04-03T02:40:29.277Z,31.50
2019-04-03T02:42:56.812Z,31.50
2019-04-03T02:45:24.931Z,31.60
2019-04-03T02:47:52.583Z,31.50
2019-04-03T02:50:23.769Z,31.50
2019-04-03T02:52:51.586Z,31.60
2019-04-03T02:55:19.009Z,31.60
2019-04-03T02:57:48.426Z,31.50
2019-04-03T03:00:16.259Z,31.80
2019-04-03T03:02:45.130Z,31.80
2019-04-03T03:05:13.027Z,31.80
2019-04-03T03:07:40.831Z,31.50
2019-04-03T03:10:09.530Z,31.90
2019-04-03T03:12:38.118Z,31.80
2019-04-03T03:15:06.153Z,32.10
2019-04-03T03:17:34.358Z,32.10
2019-04-03T03:20:06.982Z,32.10
2019-04-03T03:22:34.785Z,32.10
2019-04-03T03:25:02.597Z,32.00
2019-04-03T03:27:30.356Z,32.10
2019-04-03T03:29:59.744Z,32.10
2019-04-03T03:32:33.402Z,32.10
2019-04-03T03:35:09.523Z,32.30
2019-04-03T03:37:26.654Z,32.40
2019-04-03T03:39:54.649Z,32.50
2019-04-03T03:42:22.985Z,32.40
2019-04-03T03:44:52.283Z,32.50
2019-04-03T03:47:20.320Z,32.60
2019-04-03T03:49:50.084Z,32.60
2019-04-03T03:52:18.035Z,34.10
2019-04-03T03:54:49.720Z,32.70
2019-04-03T03:57:15.610Z,32.90
2019-04-03T03:59:43.135Z,32.90
2019-04-03T04:02:10.542Z,32.80
2019-04-03T04:04:38.526Z,32.80
2019-04-03T04:07:06.084Z,32.90
2019-04-03T04:09:33.604Z,32.90
2019-04-03T04:12:04.570Z,33.00
2019-04-03T04:14:30.486Z,33.00
2019-04-03T04:16:57.927Z,33.20
2019-04-03T04:19:29.535Z,33.30
2019-04-03T04:21:56.200Z,33.40
2019-04-03T04:24:24.474Z,33.40
2019-04-03T04:26:54.123Z,33.40
2019-04-03T04:29:23.131Z,33.60
2019-04-03T04:31:50.489Z,33.60
2019-04-03T04:34:19.240Z,33.90
2019-04-03T04:36:46.928Z,33.90
2019-04-03T04:39:14.196Z,34.00
2019-04-03T04:41:41.642Z,33.90
2019-04-03T04:44:09.975Z,34.10
2019-04-03T04:46:37.790Z,34.20
2019-04-03T04:49:05.145Z,34.40
2019-04-03T04:51:32.537Z,34.40
2019-04-03T04:54:00.399Z,34.70
2019-04-03T04:56:27.847Z,34.70
2019-04-03T04:58:55.807Z,34.70
2019-04-03T05:01:23.122Z,34.80
2019-04-03T05:03:53.429Z,35.00
2019-04-03T05:06:20.209Z,34.90
2019-04-03T05:08:47.648Z,35.10
2019-04-03T05:11:15.163Z,35.20
2019-04-03T05:13:42.563Z,35.30
2019-04-03T05:16:09.973Z,35.30
2019-04-03T05:18:37.458Z,35.30
2019-04-03T05:21:04.694Z,35.40
2019-04-03T05:23:32.250Z,35.50
2019-04-03T05:26:01.924Z,35.40
2019-04-03T05:28:29.112Z,35.50
2019-04-03T05:30:56.560Z,35.40
2019-04-03T05:33:24.246Z,35.40
2019-04-03T05:35:51.672Z,35.50
2019-04-03T05:38:21.711Z,35.50
2019-04-03T05:40:48.429Z,35.40
2019-04-03T05:43:15.955Z,35.50
2019-04-03T05:45:43.440Z,35.70
2019-04-03T05:48:13.385Z,35.90
2019-04-03T05:50:40.160Z,35.70
2019-04-03T05:53:08.001Z,35.70
2019-04-03T05:55:35.572Z,37.40
2019-04-03T05:58:03.146Z,35.70
2019-04-03T06:00:30.566Z,35.80
2019-04-03T06:02:58.463Z,35.80
2019-04-03T06:05:25.841Z,35.80
2019-04-03T06:07:53.320Z,35.90
2019-04-03T06:10:20.870Z,35.90
2019-04-03T06:12:48.182Z,35.90
2019-04-03T06:15:15.791Z,35.90
2019-04-03T06:17:43.326Z,36.00
2019-04-03T06:20:11.381Z,36.10
2019-04-03T06:22:38.894Z,36.20
2019-04-03T06:25:06.765Z,36.20
2019-04-03T06:27:34.377Z,36.20
2019-04-03T06:30:02.036Z,36.30
2019-04-03T06:32:29.922Z,34.60
2019-04-03T06:34:57.690Z,36.30
2019-04-03T06:37:25.131Z,36.20
2019-04-03T06:39:52.572Z,36.30
2019-04-03T06:42:20.097Z,36.30
2019-04-03T06:44:47.613Z,36.50
2019-04-03T06:47:15.019Z,36.40
2019-04-03T06:49:42.433Z,36.60
2019-04-03T06:52:10.010Z,36.50
2019-04-03T06:54:37.473Z,36.50
2019-04-03T06:57:04.995Z,36.50
2019-04-03T06:59:32.644Z,36.60
2019-04-03T07:02:00.262Z,36.40
2019-04-03T07:04:27.985Z,36.50
2019-04-03T07:06:56.539Z,36.60
2019-04-03T07:09:34.013Z,36.70
2019-04-03T07:11:53.566Z,36.70
2019-04-03T07:14:21.242Z,36.50
2019-04-03T07:16:48.735Z,36.50
2019-04-03T07:19:15.999Z,36.60
2019-04-03T07:21:43.460Z,36.50
2019-04-03T07:24:10.966Z,36.50
2019-04-03T07:26:38.401Z,36.50
2019-04-03T07:29:05.766Z,36.70
2019-04-03T07:31:33.268Z,36.60
2019-04-03T07:34:02.941Z,36.70
2019-04-03T07:36:30.065Z,36.70
2019-04-03T07:38:58.475Z,36.90
2019-04-03T07:41:26.337Z,36.90
2019-04-03T07:43:53.770Z,37.00
2019-04-03T07:46:21.199Z,37.20
2019-04-03T07:48:48.616Z,37.10
2019-04-03T07:51:16.124Z,37.00
2019-04-03T07:53:43.979Z,36.90
2019-04-03T07:56:11.490Z,36.90
2019-04-03T07:58:38.862Z,36.70
2019-04-03T08:01:09.440Z,36.60
2019-04-03T08:03:35.940Z,36.50
2019-04-03T08:06:04.461Z,36.40
2019-04-03T08:08:32.157Z,36.20
2019-04-03T08:11:01.669Z,36.20
2019-04-03T08:13:28.897Z,36.00
2019-04-03T08:15:56.291Z,35.80
2019-04-03T08:18:23.693Z,35.50
2019-04-03T08:20:51.201Z,35.60
2019-04-03T08:23:18.726Z,35.50
2019-04-03T08:25:48.425Z,35.70
2019-04-03T08:28:15.579Z,35.40
2019-04-03T08:30:43.002Z,35.30
2019-04-03T08:33:16.001Z,35.30
2019-04-03T08:35:39.581Z,35.00
2019-04-03T08:38:07.054Z,34.80
2019-04-03T08:40:34.502Z,34.60
2019-04-03T08:43:01.989Z,34.60
2019-04-03T08:45:29.390Z,34.40
2019-04-03T08:47:57.025Z,34.40
2019-04-03T08:50:24.454Z,34.20
2019-04-03T08:52:51.884Z,34.00
2019-04-03T08:55:23.417Z,33.60
2019-04-03T08:57:52.259Z,33.80
2019-04-03T09:00:20.693Z,33.70
2019-04-03T09:02:48.120Z,33.30
2019-04-03T09:05:18.988Z,33.20
2019-04-03T09:07:45.130Z,33.50
2019-04-03T09:10:14.751Z,33.40
2019-04-03T09:12:42.507Z,33.10
2019-04-03T09:15:10.516Z,31.40
2019-04-03T09:17:37.871Z,32.30
2019-04-03T09:20:24.919Z,32.00
2019-04-03T09:22:53.959Z,31.70
2019-04-03T09:25:21.502Z,31.40
2019-04-03T09:27:48.995Z,30.60
2019-04-03T09:30:16.716Z,29.90
2019-04-03T09:32:45.494Z,29.20
2019-04-03T09:35:14.025Z,28.50
2019-04-03T09:37:41.577Z,28.40
2019-04-03T09:40:08.942Z,28.60
2019-04-03T09:42:36.431Z,28.20
2019-04-03T09:45:06.681Z,27.70
2019-04-03T09:47:34.976Z,26.90
2019-04-03T09:50:05.458Z,26.90
2019-04-03T09:52:42.078Z,26.30
2019-04-03T09:55:02.250Z,25.70
2019-04-03T09:57:31.330Z,25.20
2019-04-03T09:59:59.181Z,23.70
2019-04-03T10:02:26.731Z,23.20
2019-04-03T10:04:55.587Z,22.80
2019-04-03T10:07:23.573Z,22.20
2019-04-03T10:09:53.765Z,21.90
2019-04-03T10:12:20.891Z,21.00
2019-04-03T10:14:51.041Z,20.50
2019-04-03T10:17:18.681Z,19.90
2019-04-03T10:19:46.336Z,19.20
2019-04-03T10:22:14.177Z,17.20
2019-04-03T10:24:41.828Z,18.40
2019-04-03T10:27:11.214Z,17.50
2019-04-03T10:29:38.347Z,17.00
2019-04-03T10:32:06.219Z,16.60
2019-04-03T10:34:35.732Z,16.30
2019-04-03T10:37:02.815Z,15.70
2019-04-03T10:39:30.190Z,15.70
2019-04-03T10:41:59.737Z,15.30
2019-04-03T10:44:28.833Z,14.90
2019-04-03T10:46:56.196Z,14.80
2019-04-03T10:49:23.828Z,13.70
2019-04-03T10:51:51.119Z,14.40
2019-04-03T10:54:18.425Z,14.20
2019-04-03T10:56:48.357Z,14.00
2019-04-03T10:59:18.127Z,14.00
2019-04-03T11:01:45.640Z,13.80
2019-04-03T11:04:13.181Z,13.70
2019-04-03T11:06:40.603Z,13.60
2019-04-03T11:09:09.129Z,13.30
2019-04-03T11:11:37.663Z,13.10
2019-04-03T11:14:07.532Z,13.20
2019-04-03T11:16:34.434Z,13.00
2019-04-03T11:19:05.549Z,13.20
2019-04-03T11:21:32.217Z,13.10
2019-04-03T11:23:59.651Z,13.30
2019-04-03T11:26:27.046Z,13.30
2019-04-03T11:28:54.505Z,13.60
2019-04-03T11:31:26.985Z,14.10
2019-04-03T11:33:51.551Z,14.50
2019-04-03T11:36:19.168Z,14.70
2019-04-03T11:38:46.710Z,14.40
2019-04-03T11:41:18.618Z,14.10
2019-04-03T11:43:43.560Z,13.90
2019-04-03T11:46:11.026Z,13.90
2019-04-03T11:48:38.344Z,13.90
2019-04-03T11:51:06.485Z,14.10
2019-04-03T11:53:35.567Z,13.50
2019-04-03T11:56:03.325Z,13.20
2019-04-03T11:58:30.935Z,13.10
2019-04-03T12:00:58.668Z,13.30
2019-04-03T12:03:26.699Z,13.30
2019-04-03T12:05:54.699Z,13.40
2019-04-03T12:08:22.212Z,13.50
2019-04-03T12:10:49.673Z,13.80
2019-04-03T12:13:17.128Z,13.90
2019-04-03T12:15:44.890Z,14.10
2019-04-03T12:18:12.257Z,14.30
2019-04-03T12:20:43.375Z,14.70
2019-04-03T12:23:09.325Z,15.00
2019-04-03T12:25:39.475Z,15.20
2019-04-03T12:28:07.342Z,15.40
2019-04-03T12:30:35.007Z,15.50
2019-04-03T12:33:02.406Z,15.70
2019-04-03T12:35:29.837Z,15.80
2019-04-03T12:37:57.405Z,15.90
2019-04-03T12:40:24.883Z,15.50
2019-04-03T12:42:52.398Z,15.40
2019-04-03T12:45:19.931Z,15.30
2019-04-03T12:47:47.733Z,15.30
2019-04-03T12:50:16.361Z,15.10
2019-04-03T12:52:44.876Z,15.00
2019-04-03T12:55:13.416Z,15.00
2019-04-03T12:57:40.947Z,14.90
2019-04-03T13:00:12.777Z,14.90
2019-04-03T13:02:41.257Z,15.00
2019-04-03T13:05:09.204Z,15.10
2019-04-03T13:07:37.425Z,15.30
2019-04-03T13:10:07.764Z,15.20
2019-04-03T13:12:35.839Z,15.30
2019-04-03T13:15:05.881Z,15.20
2019-04-03T13:17:33.774Z,15.70
2019-04-03T13:20:04.495Z,15.10
2019-04-03T13:22:30.813Z,15.20
2019-04-03T13:24:58.540Z,15.30
2019-04-03T13:27:25.983Z,13.80
2019-04-03T13:29:53.546Z,15.50
2019-04-03T13:32:23.135Z,15.60
2019-04-03T13:34:50.392Z,15.70
2019-04-03T13:37:17.906Z,15.70
2019-04-03T13:39:45.338Z,15.80
2019-04-03T13:42:13.894Z,15.90
2019-04-03T13:44:42.140Z,16.00
2019-04-03T13:47:11.002Z,14.90
2019-04-03T13:49:38.810Z,16.30
2019-04-03T13:52:08.983Z,16.50
2019-04-03T13:54:35.719Z,16.60
2019-04-03T13:57:03.178Z,16.70
2019-04-03T13:59:32.042Z,16.60
2019-04-03T14:02:01.220Z,16.70
2019-04-03T14:04:29.106Z,16.60
2019-04-03T14:06:56.766Z,16.70
2019-04-03T14:09:24.224Z,16.70
2019-04-03T14:11:51.670Z,16.80
2019-04-03T14:14:21.508Z,16.80
2019-04-03T14:19:45.852Z,16.90
2019-04-03T14:22:12.234Z,16.80
2019-04-03T14:24:44.926Z,16.90
2019-04-03T14:27:19.394Z,16.90
2019-04-03T14:29:41.002Z,16.90
2019-04-03T14:32:08.409Z,16.90
2019-04-03T14:34:39.743Z,16.90
2019-04-03T14:37:10.130Z,16.90
2019-04-03T14:39:40.192Z,17.10
2019-04-03T14:42:08.054Z,17.10
2019-04-03T14:44:35.629Z,17.10
2019-04-03T14:47:02.930Z,17.20
2019-04-03T14:49:31.651Z,17.30
2019-04-03T14:51:59.632Z,17.30
2019-04-03T14:54:27.169Z,17.30
2019-04-03T14:56:54.709Z,17.40
2019-04-03T14:59:22.807Z,17.40
2019-04-03T15:01:51.797Z,17.50
2019-04-03T15:04:19.852Z,17.60
2019-04-03T15:06:47.487Z,17.70
2019-04-03T15:09:15.726Z,17.90
2019-04-03T15:11:43.200Z,17.90
2019-04-03T15:14:10.719Z,18.30
2019-04-03T15:16:38.085Z,17.80
2019-04-03T15:19:05.525Z,18.00
2019-04-03T15:21:32.921Z,18.00
2019-04-03T15:24:00.452Z,18.00
2019-04-03T15:26:28.142Z,17.50
2019-04-03T15:28:55.687Z,18.20
2019-04-03T15:31:24.404Z,18.20
2019-04-03T15:33:54.262Z,18.30
2019-04-03T15:36:21.627Z,18.30
2019-04-03T15:38:49.866Z,18.30
2019-04-03T15:41:17.517Z,18.30
2019-04-03T15:44:01.481Z,18.40
2019-04-03T15:46:29.193Z,18.40
2019-04-03T15:48:56.551Z,17.70
2019-04-03T15:51:24.186Z,18.40
2019-04-03T15:53:52.803Z,18.40
2019-04-03T15:56:20.219Z,18.60
2019-04-03T15:58:48.635Z,18.60
2019-04-03T16:01:17.227Z,18.70
2019-04-03T16:03:44.741Z,19.40
2019-04-03T16:06:12.191Z,18.60
2019-04-03T16:08:39.732Z,18.70
2019-04-03T16:11:07.265Z,18.70
2019-04-03T16:13:34.963Z,18.80
2019-04-03T16:16:02.656Z,18.90
2019-04-03T16:18:30.688Z,18.90
2019-04-03T16:20:58.366Z,19.10
2019-04-03T16:23:26.290Z,19.30
2019-04-03T16:25:53.818Z,19.30
2019-04-03T16:28:21.727Z,19.50
2019-04-03T16:30:52.477Z,19.50
2019-04-03T16:33:22.982Z,19.70
2019-04-03T16:35:48.069Z,19.60
2019-04-03T16:38:16.014Z,19.70
2019-04-03T16:40:43.927Z,19.80
2019-04-03T16:43:12.829Z,20.40
2019-04-03T16:45:40.378Z,19.90
2019-04-03T16:48:07.858Z,19.90
2019-04-03T16:50:35.941Z,20.00
2019-04-03T16:53:05.629Z,20.00
2019-04-03T16:55:34.762Z,20.10
2019-04-03T16:58:02.226Z,20.10
2019-04-03T17:00:29.852Z,20.10
2019-04-03T17:02:57.598Z,20.20
2019-04-03T17:05:25.582Z,20.30
2019-04-03T17:07:54.880Z,20.20
2019-04-03T17:10:23.266Z,19.40
2019-04-03T17:12:50.853Z,20.40
2019-04-03T17:15:19.351Z,20.70
2019-04-03T17:17:47.527Z,20.70
2019-04-03T17:20:17.241Z,20.60
2019-04-03T17:22:46.619Z,20.70
2019-04-03T17:25:16.610Z,20.80
2019-04-03T17:27:54.188Z,20.80
2019-04-03T17:30:13.789Z,20.90
2019-04-03T17:32:41.377Z,20.90
2019-04-03T17:35:09.021Z,20.90
2019-04-03T17:37:36.800Z,20.90
2019-04-03T17:40:06.623Z,20.90
2019-04-03T17:42:34.652Z,20.90
2019-04-03T17:45:04.712Z,21.00
2019-04-03T17:47:32.308Z,21.10
2019-04-03T17:49:59.924Z,21.20
2019-04-03T17:52:27.530Z,21.30
2019-04-03T17:54:55.059Z,21.20
2019-04-03T17:57:22.526Z,21.20
2019-04-03T17:59:49.833Z,21.10
2019-04-03T18:02:17.195Z,21.40
2019-04-03T18:04:44.772Z,21.30
2019-04-03T18:07:12.326Z,21.60
2019-04-03T18:09:41.940Z,21.60
2019-04-03T18:12:09.027Z,21.70
2019-04-03T18:14:36.583Z,22.10
2019-04-03T18:17:04.249Z,21.80
2019-04-03T18:19:37.359Z,22.00
2019-04-03T18:22:00.868Z,22.00
2019-04-03T18:24:28.315Z,22.00
2019-04-03T18:26:55.824Z,22.20
2019-04-03T18:29:24.503Z,22.10
2019-04-03T18:31:52.089Z,22.20
2019-04-03T18:34:20.252Z,22.20
2019-04-03T18:36:47.936Z,22.20
2019-04-03T18:39:15.662Z,22.30
2019-04-03T18:41:49.747Z,22.50
2019-04-03T18:44:22.402Z,22.50
2019-04-03T18:46:50.057Z,22.50
2019-04-03T18:49:16.405Z,22.50
2019-04-03T18:51:43.935Z,22.70
2019-04-03T18:54:12.169Z,22.70
2019-04-03T18:56:39.681Z,22.60
2019-04-03T18:59:07.171Z,22.80
2019-04-03T19:01:34.584Z,23.10
2019-04-03T19:04:02.477Z,23.00
2019-04-03T19:06:30.593Z,23.10
2019-04-03T19:09:09.335Z,23.00
2019-04-03T19:12:07.913Z,23.60
2019-04-03T19:14:31.214Z,23.80
2019-04-03T19:16:56.501Z,23.30
2019-04-03T19:19:24.865Z,22.80
2019-04-03T19:21:54.623Z,22.70
2019-04-03T19:24:24.453Z,23.50
2019-04-03T19:26:52.005Z,23.10
2019-04-03T19:29:19.467Z,23.40
2019-04-03T19:31:46.944Z,23.50
2019-04-03T19:34:19.514Z,23.50
2019-04-03T19:36:43.824Z,23.60
2019-04-03T19:39:11.344Z,23.70
2019-04-03T19:41:38.693Z,23.70
2019-04-03T19:44:06.492Z,23.80
2019-04-03T19:46:36.385Z,23.80
2019-04-03T19:49:03.818Z,23.80
2019-04-03T19:51:31.422Z,23.90
2019-04-03T19:53:59.948Z,23.90
2019-04-03T19:56:27.804Z,24.00
2019-04-03T19:58:55.247Z,24.80
2019-04-03T20:01:29.499Z,24.50
2019-04-03T20:03:57.249Z,25.30
2019-04-03T20:06:24.672Z,25.60
2019-04-03T20:08:52.057Z,26.00
2019-04-03T20:11:19.562Z,26.80
2019-04-03T20:13:46.998Z,28.00
2019-04-03T20:16:14.634Z,26.80
2019-04-03T20:18:42.256Z,28.50
2019-04-03T20:21:15.096Z,29.00
2019-04-03T20:23:41.881Z,29.50
2019-04-03T20:26:10.291Z,29.30
2019-04-03T20:28:38.107Z,29.60
2019-04-03T20:31:06.148Z,29.80
2019-04-03T20:37:04.907Z,30.80
2019-04-03T20:39:33.901Z,31.90
2019-04-03T20:42:16.068Z,30.90
2019-04-03T20:44:44.096Z,31.00
2019-04-03T20:47:11.627Z,31.60
2019-04-03T20:49:39.435Z,32.80
2019-04-03T20:52:11.477Z,32.60
2019-04-03T20:54:39.053Z,33.00
2019-04-03T20:57:06.817Z,33.20
2019-04-03T20:59:34.280Z,33.20
2019-04-03T21:02:03.040Z,33.60
2019-04-03T21:04:30.745Z,34.50
2019-04-03T21:06:58.362Z,34.10
2019-04-03T21:09:25.947Z,34.40
2019-04-03T21:14:41.553Z,34.50
2019-04-03T21:17:09.568Z,34.50
2019-04-03T21:19:37.477Z,34.70
2019-04-03T21:22:05.904Z,34.70
2019-04-03T21:24:34.981Z,34.80
2019-04-03T21:27:02.795Z,35.00
2019-04-03T21:29:30.381Z,35.10
2019-04-03T21:31:57.932Z,35.10
2019-04-03T21:34:25.469Z,35.30
2019-04-03T21:36:53.159Z,35.30
2019-04-03T21:39:20.999Z,35.60
2019-04-03T21:41:48.557Z,33.60
2019-04-03T21:44:16.025Z,35.80
2019-04-03T21:46:43.420Z,36.10
2019-04-03T21:49:12.305Z,36.20
2019-04-03T21:51:40.125Z,36.10
2019-04-03T21:54:07.749Z,36.30
2019-04-03T21:56:36.049Z,36.40
2019-04-03T21:59:03.585Z,36.00
2019-04-03T22:01:31.320Z,36.60
2019-04-03T22:03:59.807Z,36.60
2019-04-03T22:06:27.849Z,36.80
2019-04-03T22:08:55.460Z,36.60
2019-04-03T22:11:23.109Z,36.90
2019-04-03T22:13:51.750Z,36.90
2019-04-03T22:16:20.330Z,36.90
2019-04-03T22:18:47.892Z,36.90
2019-04-03T22:21:15.361Z,37.90
2019-04-03T22:23:42.985Z,36.70
2019-04-03T22:26:10.577Z,37.40
2019-04-03T22:28:38.228Z,36.90
2019-04-03T22:31:05.777Z,37.00
2019-04-03T22:33:33.375Z,36.90
2019-04-03T22:36:01.273Z,36.80
2019-04-03T22:38:30.211Z,37.50
2019-04-03T22:40:57.618Z,37.00
2019-04-03T22:43:25.159Z,37.00
2019-04-03T22:45:52.524Z,37.20
2019-04-03T22:48:19.866Z,36.50
2019-04-03T22:50:47.240Z,37.20
2019-04-03T22:53:14.692Z,37.20
2019-04-03T22:55:42.255Z,37.20
2019-04-03T22:58:09.831Z,37.20
2019-04-03T23:00:37.319Z,37.30
2019-04-03T23:03:26.422Z,37.40
2019-04-03T23:05:54.138Z,37.50
2019-04-03T23:08:22.779Z,37.50
2019-04-03T23:10:51.031Z,37.50
2019-04-03T23:13:18.627Z,37.50
2019-04-03T23:15:46.152Z,37.60
2019-04-03T23:18:14.003Z,37.70
2019-04-03T23:20:43.058Z,37.50
2019-04-03T23:23:10.546Z,37.60
2019-04-03T23:25:38.070Z,37.60
2019-04-03T23:28:05.583Z,37.70
2019-04-03T23:30:33.097Z,37.80
2019-04-03T23:33:00.478Z,37.80
2019-04-03T23:35:27.888Z,37.80
2019-04-03T23:37:55.814Z,37.80
2019-04-03T23:40:23.849Z,37.90
2019-04-03T23:42:51.297Z,38.00
2019-04-03T23:45:19.466Z,38.10
2019-04-03T23:47:47.499Z,38.20
2019-04-03T23:50:15.171Z,38.20
2019-04-03T23:52:42.654Z,38.30
2019-04-03T23:55:10.169Z,38.40
2019-04-03T23:57:39.684Z,38.50
